sensor_id;sensor_type;location;lat;lon;timestamp;P1;durP1;ratioP1;P2;durP2;ratioP2
36351;SDS011;22382;44.768;17.206;2023-02-15T00:01:54;29.60;;;17.17;;
36351;SDS011;22382;44.768;17.206;2023-02-15T00:04:23;30.70;;;17.42;;
36351;SDS011;22382;44.768;17.206;2023-02-15T00:07:11;32.00;;;17.08;;
36351;SDS011;22382;44.768;17.206;2023-02-15T00:09:39;30.85;;;17.33;;
36351;SDS011;22382;44.768;17.206;2023-02-15T00:12:06;30.30;;;17.35;;
36351;SDS011;22382;44.768;17.206;2023-02-15T00:14:33;32.13;;;18.60;;
36351;SDS011;22382;44.768;17.206;2023-02-15T00:17:01;31.05;;;18.17;;
36351;SDS011;22382;44.768;17.206;2023-02-15T00:19:28;33.15;;;18.08;;
36351;SDS011;22382;44.768;17.206;2023-02-15T00:21:55;36.80;;;20.40;;
36351;SDS011;22382;44.768;17.206;2023-02-15T00:24:22;35.92;;;19.73;;
36351;SDS011;22382;44.768;17.206;2023-02-15T00:26:49;37.08;;;20.40;;
36351;SDS011;22382;44.768;17.206;2023-02-15T00:29:17;32.03;;;18.48;;
36351;SDS011;22382;44.768;17.206;2023-02-15T00:31:45;31.08;;;18.05;;
36351;SDS011;22382;44.768;17.206;2023-02-15T00:34:14;32.30;;;18.70;;
36351;SDS011;22382;44.768;17.206;2023-02-15T00:36:43;38.83;;;20.52;;
36351;SDS011;22382;44.768;17.206;2023-02-15T00:39:11;38.67;;;21.88;;
36351;SDS011;22382;44.768;17.206;2023-02-15T00:41:39;42.67;;;22.55;;
36351;SDS011;22382;44.768;17.206;2023-02-15T00:44:06;41.50;;;22.17;;
36351;SDS011;22382;44.768;17.206;2023-02-15T00:46:34;41.63;;;23.25;;
36351;SDS011;22382;44.768;17.206;2023-02-15T00:49:02;41.17;;;23.33;;
36351;SDS011;22382;44.768;17.206;2023-02-15T00:51:29;39.65;;;21.85;;
36351;SDS011;22382;44.768;17.206;2023-02-15T00:53:56;41.28;;;22.67;;
36351;SDS011;22382;44.768;17.206;2023-02-15T00:56:24;41.28;;;22.80;;
36351;SDS011;22382;44.768;17.206;2023-02-15T00:58:51;38.63;;;22.35;;
36351;SDS011;22382;44.768;17.206;2023-02-15T01:01:19;33.78;;;19.60;;
36351;SDS011;22382;44.768;17.206;2023-02-15T01:03:47;35.70;;;19.20;;
36351;SDS011;22382;44.768;17.206;2023-02-15T01:06:15;32.67;;;17.92;;
36351;SDS011;22382;44.768;17.206;2023-02-15T01:08:43;32.70;;;18.55;;
36351;SDS011;22382;44.768;17.206;2023-02-15T01:11:12;31.23;;;18.80;;
36351;SDS011;22382;44.768;17.206;2023-02-15T01:13:41;32.17;;;18.30;;
36351;SDS011;22382;44.768;17.206;2023-02-15T01:16:08;32.58;;;19.25;;
36351;SDS011;22382;44.768;17.206;2023-02-15T01:18:36;35.88;;;21.48;;
36351;SDS011;22382;44.768;17.206;2023-02-15T01:21:10;37.33;;;21.40;;
36351;SDS011;22382;44.768;17.206;2023-02-15T01:23:42;42.22;;;22.83;;
36351;SDS011;22382;44.768;17.206;2023-02-15T01:26:09;40.72;;;24.00;;
36351;SDS011;22382;44.768;17.206;2023-02-15T01:28:36;39.28;;;22.15;;
36351;SDS011;22382;44.768;17.206;2023-02-15T01:31:05;36.42;;;21.67;;
36351;SDS011;22382;44.768;17.206;2023-02-15T01:33:34;44.10;;;21.48;;
36351;SDS011;22382;44.768;17.206;2023-02-15T01:36:02;37.55;;;20.77;;
36351;SDS011;22382;44.768;17.206;2023-02-15T01:38:31;38.20;;;21.17;;
36351;SDS011;22382;44.768;17.206;2023-02-15T01:40:59;37.05;;;21.17;;
36351;SDS011;22382;44.768;17.206;2023-02-15T01:43:46;34.50;;;19.35;;
36351;SDS011;22382;44.768;17.206;2023-02-15T01:46:15;32.90;;;19.27;;
36351;SDS011;22382;44.768;17.206;2023-02-15T01:48:47;36.25;;;20.70;;
36351;SDS011;22382;44.768;17.206;2023-02-15T01:51:19;35.90;;;19.25;;
36351;SDS011;22382;44.768;17.206;2023-02-15T01:54:01;34.95;;;20.77;;
36351;SDS011;22382;44.768;17.206;2023-02-15T01:56:33;34.00;;;19.98;;
36351;SDS011;22382;44.768;17.206;2023-02-15T01:59:04;33.22;;;19.65;;
36351;SDS011;22382;44.768;17.206;2023-02-15T02:01:35;32.63;;;19.27;;
36351;SDS011;22382;44.768;17.206;2023-02-15T02:07:14;32.10;;;18.88;;
36351;SDS011;22382;44.768;17.206;2023-02-15T02:09:45;33.25;;;19.05;;
36351;SDS011;22382;44.768;17.206;2023-02-15T02:12:12;33.92;;;19.88;;
36351;SDS011;22382;44.768;17.206;2023-02-15T02:14:40;33.15;;;18.77;;
36351;SDS011;22382;44.768;17.206;2023-02-15T02:34:12;33.97;;;20.48;;
36351;SDS011;22382;44.768;17.206;2023-02-15T02:37:30;41.85;;;21.85;;
36351;SDS011;22382;44.768;17.206;2023-02-15T02:42:14;37.75;;;21.25;;
36351;SDS011;22382;44.768;17.206;2023-02-15T02:44:49;36.80;;;21.75;;
36351;SDS011;22382;44.768;17.206;2023-02-15T02:47:41;36.33;;;21.20;;
36351;SDS011;22382;44.768;17.206;2023-02-15T02:50:14;42.13;;;21.38;;
36351;SDS011;22382;44.768;17.206;2023-02-15T02:52:47;40.95;;;21.95;;
36351;SDS011;22382;44.768;17.206;2023-02-15T02:58:35;35.33;;;21.42;;
36351;SDS011;22382;44.768;17.206;2023-02-15T03:03:34;29.20;;;17.00;;
36351;SDS011;22382;44.768;17.206;2023-02-15T03:06:20;32.33;;;18.25;;
36351;SDS011;22382;44.768;17.206;2023-02-15T03:09:10;26.58;;;16.05;;
36351;SDS011;22382;44.768;17.206;2023-02-15T03:11:43;30.50;;;17.23;;
36351;SDS011;22382;44.768;17.206;2023-02-15T03:14:12;29.20;;;17.23;;
36351;SDS011;22382;44.768;17.206;2023-02-15T03:16:42;29.98;;;17.10;;
36351;SDS011;22382;44.768;17.206;2023-02-15T03:19:31;29.90;;;17.52;;
36351;SDS011;22382;44.768;17.206;2023-02-15T03:22:01;31.60;;;17.25;;
36351;SDS011;22382;44.768;17.206;2023-02-15T03:24:37;36.50;;;19.25;;
36351;SDS011;22382;44.768;17.206;2023-02-15T03:27:07;31.05;;;17.75;;
36351;SDS011;22382;44.768;17.206;2023-02-15T03:29:38;33.78;;;18.60;;
36351;SDS011;22382;44.768;17.206;2023-02-15T03:32:07;34.00;;;19.08;;
36351;SDS011;22382;44.768;17.206;2023-02-15T03:34:37;34.47;;;19.00;;
36351;SDS011;22382;44.768;17.206;2023-02-15T03:37:18;31.10;;;18.75;;
36351;SDS011;22382;44.768;17.206;2023-02-15T03:42:45;31.52;;;17.95;;
36351;SDS011;22382;44.768;17.206;2023-02-15T03:45:20;26.92;;;16.55;;
36351;SDS011;22382;44.768;17.206;2023-02-15T03:47:52;28.90;;;16.85;;
36351;SDS011;22382;44.768;17.206;2023-02-15T03:50:22;27.77;;;16.25;;
36351;SDS011;22382;44.768;17.206;2023-02-15T03:53:14;30.83;;;15.85;;
36351;SDS011;22382;44.768;17.206;2023-02-15T03:58:15;27.42;;;15.68;;
36351;SDS011;22382;44.768;17.206;2023-02-15T04:01:04;31.38;;;17.00;;
36351;SDS011;22382;44.768;17.206;2023-02-15T04:04:07;33.28;;;17.92;;
36351;SDS011;22382;44.768;17.206;2023-02-15T04:06:42;36.25;;;17.88;;
36351;SDS011;22382;44.768;17.206;2023-02-15T04:09:09;32.85;;;18.83;;
36351;SDS011;22382;44.768;17.206;2023-02-15T04:11:54;39.03;;;19.85;;
36351;SDS011;22382;44.768;17.206;2023-02-15T04:14:22;34.60;;;19.55;;
36351;SDS011;22382;44.768;17.206;2023-02-15T04:17:08;34.58;;;20.95;;
36351;SDS011;22382;44.768;17.206;2023-02-15T04:19:35;37.72;;;20.58;;
36351;SDS011;22382;44.768;17.206;2023-02-15T04:22:21;35.15;;;19.98;;
36351;SDS011;22382;44.768;17.206;2023-02-15T04:25:06;36.58;;;20.42;;
36351;SDS011;22382;44.768;17.206;2023-02-15T04:27:41;35.75;;;20.42;;
36351;SDS011;22382;44.768;17.206;2023-02-15T04:30:11;36.83;;;20.10;;
36351;SDS011;22382;44.768;17.206;2023-02-15T04:32:39;39.53;;;19.60;;
36351;SDS011;22382;44.768;17.206;2023-02-15T04:35:07;36.97;;;19.52;;
36351;SDS011;22382;44.768;17.206;2023-02-15T04:37:35;34.67;;;19.23;;
36351;SDS011;22382;44.768;17.206;2023-02-15T04:40:03;37.25;;;19.33;;
36351;SDS011;22382;44.768;17.206;2023-02-15T04:42:31;31.45;;;17.02;;
36351;SDS011;22382;44.768;17.206;2023-02-15T04:44:58;29.17;;;17.38;;
36351;SDS011;22382;44.768;17.206;2023-02-15T04:47:26;30.45;;;18.48;;
36351;SDS011;22382;44.768;17.206;2023-02-15T04:49:53;32.45;;;18.33;;
36351;SDS011;22382;44.768;17.206;2023-02-15T04:52:23;29.73;;;16.65;;
36351;SDS011;22382;44.768;17.206;2023-02-15T04:54:50;29.58;;;17.58;;
36351;SDS011;22382;44.768;17.206;2023-02-15T04:57:17;30.88;;;17.40;;
36351;SDS011;22382;44.768;17.206;2023-02-15T04:59:44;31.10;;;17.25;;
36351;SDS011;22382;44.768;17.206;2023-02-15T05:02:11;33.92;;;18.00;;
36351;SDS011;22382;44.768;17.206;2023-02-15T05:04:38;33.78;;;18.60;;
36351;SDS011;22382;44.768;17.206;2023-02-15T05:07:05;32.25;;;18.08;;
36351;SDS011;22382;44.768;17.206;2023-02-15T05:09:33;33.30;;;18.08;;
36351;SDS011;22382;44.768;17.206;2023-02-15T05:12:00;28.77;;;15.82;;
36351;SDS011;22382;44.768;17.206;2023-02-15T05:14:27;27.23;;;15.65;;
36351;SDS011;22382;44.768;17.206;2023-02-15T05:16:54;28.63;;;15.35;;
36351;SDS011;22382;44.768;17.206;2023-02-15T05:19:21;27.38;;;15.68;;
36351;SDS011;22382;44.768;17.206;2023-02-15T05:21:50;30.27;;;16.42;;
36351;SDS011;22382;44.768;17.206;2023-02-15T05:24:18;26.95;;;16.33;;
36351;SDS011;22382;44.768;17.206;2023-02-15T05:27:04;29.83;;;17.92;;
36351;SDS011;22382;44.768;17.206;2023-02-15T05:29:49;31.15;;;17.95;;
36351;SDS011;22382;44.768;17.206;2023-02-15T05:32:17;33.58;;;19.15;;
36351;SDS011;22382;44.768;17.206;2023-02-15T05:34:44;34.42;;;20.27;;
36351;SDS011;22382;44.768;17.206;2023-02-15T05:37:11;40.13;;;21.90;;
36351;SDS011;22382;44.768;17.206;2023-02-15T05:39:38;37.78;;;21.50;;
36351;SDS011;22382;44.768;17.206;2023-02-15T05:42:05;31.98;;;19.90;;
36351;SDS011;22382;44.768;17.206;2023-02-15T05:44:32;34.28;;;19.98;;
36351;SDS011;22382;44.768;17.206;2023-02-15T05:46:59;37.50;;;21.50;;
36351;SDS011;22382;44.768;17.206;2023-02-15T05:49:26;33.70;;;20.58;;
36351;SDS011;22382;44.768;17.206;2023-02-15T05:51:54;35.88;;;20.75;;
36351;SDS011;22382;44.768;17.206;2023-02-15T05:54:21;37.45;;;21.67;;
36351;SDS011;22382;44.768;17.206;2023-02-15T05:56:50;34.83;;;20.20;;
36351;SDS011;22382;44.768;17.206;2023-02-15T05:59:17;37.03;;;21.52;;
36351;SDS011;22382;44.768;17.206;2023-02-15T06:01:44;36.83;;;21.27;;
36351;SDS011;22382;44.768;17.206;2023-02-15T06:04:12;33.40;;;20.02;;
36351;SDS011;22382;44.768;17.206;2023-02-15T06:06:39;38.55;;;21.05;;
36351;SDS011;22382;44.768;17.206;2023-02-15T06:09:06;32.92;;;21.00;;
36351;SDS011;22382;44.768;17.206;2023-02-15T06:11:34;35.47;;;20.77;;
36351;SDS011;22382;44.768;17.206;2023-02-15T06:14:02;47.28;;;27.98;;
36351;SDS011;22382;44.768;17.206;2023-02-15T06:16:29;44.15;;;26.65;;
36351;SDS011;22382;44.768;17.206;2023-02-15T06:18:56;41.60;;;25.60;;
36351;SDS011;22382;44.768;17.206;2023-02-15T06:21:25;42.63;;;24.20;;
36351;SDS011;22382;44.768;17.206;2023-02-15T06:23:52;35.80;;;22.23;;
36351;SDS011;22382;44.768;17.206;2023-02-15T06:26:20;40.17;;;21.73;;
36351;SDS011;22382;44.768;17.206;2023-02-15T06:28:48;35.55;;;21.45;;
36351;SDS011;22382;44.768;17.206;2023-02-15T06:31:15;37.15;;;21.58;;
36351;SDS011;22382;44.768;17.206;2023-02-15T06:33:42;33.17;;;20.52;;
36351;SDS011;22382;44.768;17.206;2023-02-15T06:36:09;35.88;;;21.25;;
36351;SDS011;22382;44.768;17.206;2023-02-15T06:38:36;36.42;;;21.00;;
36351;SDS011;22382;44.768;17.206;2023-02-15T06:41:03;34.97;;;20.98;;
36351;SDS011;22382;44.768;17.206;2023-02-15T06:43:31;36.13;;;20.73;;
36351;SDS011;22382;44.768;17.206;2023-02-15T06:46:00;36.55;;;19.33;;
36351;SDS011;22382;44.768;17.206;2023-02-15T06:48:28;35.60;;;20.90;;
36351;SDS011;22382;44.768;17.206;2023-02-15T06:50:55;51.08;;;27.70;;
36351;SDS011;22382;44.768;17.206;2023-02-15T06:53:24;55.92;;;30.90;;
36351;SDS011;22382;44.768;17.206;2023-02-15T06:55:51;59.13;;;31.40;;
36351;SDS011;22382;44.768;17.206;2023-02-15T06:58:18;67.88;;;34.65;;
36351;SDS011;22382;44.768;17.206;2023-02-15T07:00:45;53.83;;;30.27;;
36351;SDS011;22382;44.768;17.206;2023-02-15T07:03:13;47.70;;;28.27;;
36351;SDS011;22382;44.768;17.206;2023-02-15T07:05:41;40.05;;;23.77;;
36351;SDS011;22382;44.768;17.206;2023-02-15T07:08:09;36.28;;;22.08;;
36351;SDS011;22382;44.768;17.206;2023-02-15T07:10:36;38.40;;;20.92;;
36351;SDS011;22382;44.768;17.206;2023-02-15T07:13:03;36.15;;;20.42;;
36351;SDS011;22382;44.768;17.206;2023-02-15T07:15:31;32.13;;;19.27;;
36351;SDS011;22382;44.768;17.206;2023-02-15T07:17:58;35.65;;;21.23;;
36351;SDS011;22382;44.768;17.206;2023-02-15T07:20:25;33.00;;;20.15;;
36351;SDS011;22382;44.768;17.206;2023-02-15T07:22:53;33.13;;;19.83;;
36351;SDS011;22382;44.768;17.206;2023-02-15T07:25:20;32.75;;;19.58;;
36351;SDS011;22382;44.768;17.206;2023-02-15T07:27:55;32.58;;;18.95;;
36351;SDS011;22382;44.768;17.206;2023-02-15T07:30:26;31.27;;;19.55;;
36351;SDS011;22382;44.768;17.206;2023-02-15T07:32:55;32.72;;;18.10;;
36351;SDS011;22382;44.768;17.206;2023-02-15T07:35:48;32.97;;;18.35;;
36351;SDS011;22382;44.768;17.206;2023-02-15T07:38:20;30.38;;;17.90;;
36351;SDS011;22382;44.768;17.206;2023-02-15T07:40:48;28.80;;;18.77;;
36351;SDS011;22382;44.768;17.206;2023-02-15T07:43:15;30.30;;;18.30;;
36351;SDS011;22382;44.768;17.206;2023-02-15T07:45:42;31.10;;;18.83;;
36351;SDS011;22382;44.768;17.206;2023-02-15T07:48:10;32.58;;;19.08;;
36351;SDS011;22382;44.768;17.206;2023-02-15T07:50:37;28.55;;;18.98;;
36351;SDS011;22382;44.768;17.206;2023-02-15T07:53:04;42.88;;;20.52;;
36351;SDS011;22382;44.768;17.206;2023-02-15T07:55:32;35.45;;;21.35;;
36351;SDS011;22382;44.768;17.206;2023-02-15T07:58:01;38.70;;;22.33;;
36351;SDS011;22382;44.768;17.206;2023-02-15T08:00:29;37.25;;;22.38;;
36351;SDS011;22382;44.768;17.206;2023-02-15T08:02:56;42.67;;;25.67;;
36351;SDS011;22382;44.768;17.206;2023-02-15T08:05:43;43.75;;;25.85;;
36351;SDS011;22382;44.768;17.206;2023-02-15T08:08:11;36.67;;;23.20;;
36351;SDS011;22382;44.768;17.206;2023-02-15T08:11:01;38.50;;;23.35;;
36351;SDS011;22382;44.768;17.206;2023-02-15T08:13:47;44.55;;;26.60;;
36351;SDS011;22382;44.768;17.206;2023-02-15T08:16:23;43.83;;;26.23;;
36351;SDS011;22382;44.768;17.206;2023-02-15T08:19:24;41.45;;;25.92;;
36351;SDS011;22382;44.768;17.206;2023-02-15T08:21:54;38.03;;;24.95;;
36351;SDS011;22382;44.768;17.206;2023-02-15T08:24:26;42.50;;;26.42;;
36351;SDS011;22382;44.768;17.206;2023-02-15T08:26:55;40.22;;;25.20;;
36351;SDS011;22382;44.768;17.206;2023-02-15T08:29:24;41.15;;;25.15;;
36351;SDS011;22382;44.768;17.206;2023-02-15T08:31:53;40.38;;;25.55;;
36351;SDS011;22382;44.768;17.206;2023-02-15T08:34:29;36.28;;;23.00;;
36351;SDS011;22382;44.768;17.206;2023-02-15T08:36:58;38.05;;;24.60;;
36351;SDS011;22382;44.768;17.206;2023-02-15T08:39:25;38.25;;;24.58;;
36351;SDS011;22382;44.768;17.206;2023-02-15T08:41:52;42.40;;;24.45;;
36351;SDS011;22382;44.768;17.206;2023-02-15T08:44:20;31.08;;;21.23;;
36351;SDS011;22382;44.768;17.206;2023-02-15T08:46:48;33.22;;;21.00;;
36351;SDS011;22382;44.768;17.206;2023-02-15T08:49:17;32.17;;;19.80;;
36351;SDS011;22382;44.768;17.206;2023-02-15T08:51:46;33.70;;;20.85;;
36351;SDS011;22382;44.768;17.206;2023-02-15T08:54:16;28.65;;;17.42;;
36351;SDS011;22382;44.768;17.206;2023-02-15T08:56:45;24.20;;;16.00;;
36351;SDS011;22382;44.768;17.206;2023-02-15T08:59:17;25.38;;;16.20;;
36351;SDS011;22382;44.768;17.206;2023-02-15T09:01:49;26.33;;;16.48;;
36351;SDS011;22382;44.768;17.206;2023-02-15T09:04:18;24.05;;;15.70;;
36351;SDS011;22382;44.768;17.206;2023-02-15T09:06:47;28.55;;;18.13;;
36351;SDS011;22382;44.768;17.206;2023-02-15T09:09:16;27.05;;;17.52;;
36351;SDS011;22382;44.768;17.206;2023-02-15T09:11:45;23.23;;;15.52;;
36351;SDS011;22382;44.768;17.206;2023-02-15T09:14:15;28.88;;;15.10;;
36351;SDS011;22382;44.768;17.206;2023-02-15T09:16:47;25.52;;;14.65;;
36351;SDS011;22382;44.768;17.206;2023-02-15T09:19:18;24.63;;;15.63;;
36351;SDS011;22382;44.768;17.206;2023-02-15T09:21:46;31.73;;;16.98;;
36351;SDS011;22382;44.768;17.206;2023-02-15T09:24:15;29.40;;;17.20;;
36351;SDS011;22382;44.768;17.206;2023-02-15T09:26:44;22.25;;;13.95;;
36351;SDS011;22382;44.768;17.206;2023-02-15T09:29:13;25.17;;;13.95;;
36351;SDS011;22382;44.768;17.206;2023-02-15T09:31:43;25.55;;;12.52;;
36351;SDS011;22382;44.768;17.206;2023-02-15T09:34:12;27.30;;;13.93;;
36351;SDS011;22382;44.768;17.206;2023-02-15T09:36:42;24.70;;;13.70;;
36351;SDS011;22382;44.768;17.206;2023-02-15T09:39:14;23.98;;;14.25;;
36351;SDS011;22382;44.768;17.206;2023-02-15T09:50:53;21.98;;;14.50;;
36351;SDS011;22382;44.768;17.206;2023-02-15T09:53:14;24.30;;;13.02;;
36351;SDS011;22382;44.768;17.206;2023-02-15T10:14:52;20.67;;;12.35;;
36351;SDS011;22382;44.768;17.206;2023-02-15T10:25:53;19.77;;;11.65;;
36351;SDS011;22382;44.768;17.206;2023-02-15T10:31:25;18.63;;;11.18;;
36351;SDS011;22382;44.768;17.206;2023-02-15T10:36:55;24.70;;;14.77;;
36351;SDS011;22382;44.768;17.206;2023-02-15T10:45:06;21.15;;;14.02;;
36351;SDS011;22382;44.768;17.206;2023-02-15T10:50:27;21.67;;;14.02;;
36351;SDS011;22382;44.768;17.206;2023-02-15T10:56:24;25.25;;;15.60;;
36351;SDS011;22382;44.768;17.206;2023-02-15T11:01:49;26.13;;;16.02;;
36351;SDS011;22382;44.768;17.206;2023-02-15T11:07:35;24.55;;;14.68;;
36351;SDS011;22382;44.768;17.206;2023-02-15T11:12:44;26.25;;;15.13;;
36351;SDS011;22382;44.768;17.206;2023-02-15T11:15:25;26.48;;;16.08;;
36351;SDS011;22382;44.768;17.206;2023-02-15T11:17:59;23.83;;;16.02;;
36351;SDS011;22382;44.768;17.206;2023-02-15T11:23:09;23.63;;;15.05;;
36351;SDS011;22382;44.768;17.206;2023-02-15T11:25:43;25.13;;;15.95;;
36351;SDS011;22382;44.768;17.206;2023-02-15T11:28:20;27.70;;;17.17;;
36351;SDS011;22382;44.768;17.206;2023-02-15T11:30:54;24.92;;;16.23;;
36351;SDS011;22382;44.768;17.206;2023-02-15T11:33:30;28.20;;;16.58;;
36351;SDS011;22382;44.768;17.206;2023-02-15T11:36:11;30.27;;;17.60;;
36351;SDS011;22382;44.768;17.206;2023-02-15T11:38:43;24.88;;;16.35;;
36351;SDS011;22382;44.768;17.206;2023-02-15T11:41:20;26.63;;;16.48;;
36351;SDS011;22382;44.768;17.206;2023-02-15T11:44:01;28.35;;;15.75;;
36351;SDS011;22382;44.768;17.206;2023-02-15T11:46:32;21.80;;;14.70;;
36351;SDS011;22382;44.768;17.206;2023-02-15T11:48:59;22.10;;;13.88;;
36351;SDS011;22382;44.768;17.206;2023-02-15T11:51:26;25.85;;;14.15;;
36351;SDS011;22382;44.768;17.206;2023-02-15T11:53:55;31.75;;;14.02;;
36351;SDS011;22382;44.768;17.206;2023-02-15T11:56:23;21.42;;;13.57;;
36351;SDS011;22382;44.768;17.206;2023-02-15T11:58:57;22.40;;;13.82;;
36351;SDS011;22382;44.768;17.206;2023-02-15T12:01:36;23.90;;;14.00;;
36351;SDS011;22382;44.768;17.206;2023-02-15T12:04:11;19.95;;;13.93;;
36351;SDS011;22382;44.768;17.206;2023-02-15T12:07:41;23.02;;;14.93;;
36351;SDS011;22382;44.768;17.206;2023-02-15T12:10:04;21.50;;;14.10;;
36351;SDS011;22382;44.768;17.206;2023-02-15T12:15:43;24.08;;;14.25;;
36351;SDS011;22382;44.768;17.206;2023-02-15T12:18:20;24.05;;;14.85;;
36351;SDS011;22382;44.768;17.206;2023-02-15T12:21:30;23.08;;;13.20;;
36351;SDS011;22382;44.768;17.206;2023-02-15T12:24:08;21.27;;;12.77;;
36351;SDS011;22382;44.768;17.206;2023-02-15T12:26:44;19.63;;;12.43;;
36351;SDS011;22382;44.768;17.206;2023-02-15T12:29:29;21.33;;;13.60;;
36351;SDS011;22382;44.768;17.206;2023-02-15T12:32:02;18.83;;;12.55;;
36351;SDS011;22382;44.768;17.206;2023-02-15T12:34:32;19.27;;;12.60;;
36351;SDS011;22382;44.768;17.206;2023-02-15T12:37:10;19.85;;;12.48;;
36351;SDS011;22382;44.768;17.206;2023-02-15T12:43:04;21.17;;;13.05;;
36351;SDS011;22382;44.768;17.206;2023-02-15T12:45:36;22.40;;;13.75;;
36351;SDS011;22382;44.768;17.206;2023-02-15T12:50:41;16.80;;;11.95;;
36351;SDS011;22382;44.768;17.206;2023-02-15T12:55:56;21.17;;;12.93;;
36351;SDS011;22382;44.768;17.206;2023-02-15T12:58:25;19.05;;;13.18;;
36351;SDS011;22382;44.768;17.206;2023-02-15T13:03:30;18.75;;;12.98;;
36351;SDS011;22382;44.768;17.206;2023-02-15T13:05:57;19.08;;;12.38;;
36351;SDS011;22382;44.768;17.206;2023-02-15T13:08:30;19.70;;;13.38;;
36351;SDS011;22382;44.768;17.206;2023-02-15T13:11:00;21.55;;;13.38;;
36351;SDS011;22382;44.768;17.206;2023-02-15T13:13:45;21.30;;;13.15;;
36351;SDS011;22382;44.768;17.206;2023-02-15T13:16:14;20.38;;;12.65;;
36351;SDS011;22382;44.768;17.206;2023-02-15T13:18:43;20.60;;;12.77;;
36351;SDS011;22382;44.768;17.206;2023-02-15T13:21:13;21.30;;;13.25;;
36351;SDS011;22382;44.768;17.206;2023-02-15T13:23:54;21.55;;;13.98;;
36351;SDS011;22382;44.768;17.206;2023-02-15T13:26:24;23.83;;;15.55;;
36351;SDS011;22382;44.768;17.206;2023-02-15T13:28:56;26.52;;;17.48;;
36351;SDS011;22382;44.768;17.206;2023-02-15T13:31:28;24.05;;;14.02;;
36351;SDS011;22382;44.768;17.206;2023-02-15T13:34:15;19.73;;;12.82;;
36351;SDS011;22382;44.768;17.206;2023-02-15T13:54:01;20.60;;;13.30;;
36351;SDS011;22382;44.768;17.206;2023-02-15T14:08:19;26.83;;;15.52;;
36351;SDS011;22382;44.768;17.206;2023-02-15T14:11:24;35.05;;;15.60;;
36351;SDS011;22382;44.768;17.206;2023-02-15T14:14:02;26.15;;;14.68;;
36351;SDS011;22382;44.768;17.206;2023-02-15T14:20:32;25.50;;;16.92;;
36351;SDS011;22382;44.768;17.206;2023-02-15T14:23:34;24.65;;;16.02;;
36351;SDS011;22382;44.768;17.206;2023-02-15T14:32:12;22.17;;;12.13;;
36351;SDS011;22382;44.768;17.206;2023-02-15T14:35:00;20.35;;;12.30;;
36351;SDS011;22382;44.768;17.206;2023-02-15T14:37:50;24.38;;;13.68;;
36351;SDS011;22382;44.768;17.206;2023-02-15T14:43:52;23.23;;;12.32;;
36351;SDS011;22382;44.768;17.206;2023-02-15T14:46:50;23.23;;;13.48;;
36351;SDS011;22382;44.768;17.206;2023-02-15T14:49:38;26.60;;;16.60;;
36351;SDS011;22382;44.768;17.206;2023-02-15T14:52:07;28.67;;;17.20;;
36351;SDS011;22382;44.768;17.206;2023-02-15T14:59:38;29.55;;;17.20;;
36351;SDS011;22382;44.768;17.206;2023-02-15T15:02:26;25.38;;;16.58;;
36351;SDS011;22382;44.768;17.206;2023-02-15T15:05:24;28.40;;;17.92;;
36351;SDS011;22382;44.768;17.206;2023-02-15T15:07:53;30.77;;;19.15;;
36351;SDS011;22382;44.768;17.206;2023-02-15T15:12:50;29.15;;;17.23;;
36351;SDS011;22382;44.768;17.206;2023-02-15T15:17:57;29.20;;;17.25;;
36351;SDS011;22382;44.768;17.206;2023-02-15T15:20:41;30.05;;;17.00;;
36351;SDS011;22382;44.768;17.206;2023-02-15T15:31:08;29.13;;;17.83;;
36351;SDS011;22382;44.768;17.206;2023-02-15T15:45:51;31.38;;;18.85;;
36351;SDS011;22382;44.768;17.206;2023-02-15T15:48:38;29.23;;;17.58;;
36351;SDS011;22382;44.768;17.206;2023-02-15T15:51:11;27.98;;;17.35;;
36351;SDS011;22382;44.768;17.206;2023-02-15T15:53:53;30.30;;;17.25;;
36351;SDS011;22382;44.768;17.206;2023-02-15T15:56:26;27.10;;;16.63;;
36351;SDS011;22382;44.768;17.206;2023-02-15T15:58:58;28.33;;;17.30;;
36351;SDS011;22382;44.768;17.206;2023-02-15T16:01:29;35.40;;;18.27;;
36351;SDS011;22382;44.768;17.206;2023-02-15T16:04:01;27.63;;;17.48;;
36351;SDS011;22382;44.768;17.206;2023-02-15T16:06:29;29.98;;;18.27;;
36351;SDS011;22382;44.768;17.206;2023-02-15T16:09:16;49.67;;;28.17;;
36351;SDS011;22382;44.768;17.206;2023-02-15T16:11:49;41.50;;;23.75;;
36351;SDS011;22382;44.768;17.206;2023-02-15T16:14:26;45.47;;;28.35;;
36351;SDS011;22382;44.768;17.206;2023-02-15T16:16:58;55.20;;;33.25;;
36351;SDS011;22382;44.768;17.206;2023-02-15T16:19:38;62.80;;;37.58;;
36351;SDS011;22382;44.768;17.206;2023-02-15T16:22:19;70.13;;;39.47;;
36351;SDS011;22382;44.768;17.206;2023-02-15T16:27:44;64.32;;;35.75;;
36351;SDS011;22382;44.768;17.206;2023-02-15T16:35:39;54.10;;;32.72;;
36351;SDS011;22382;44.768;17.206;2023-02-15T16:38:21;50.35;;;30.90;;
36351;SDS011;22382;44.768;17.206;2023-02-15T16:41:15;49.72;;;30.00;;
36351;SDS011;22382;44.768;17.206;2023-02-15T16:43:44;50.75;;;30.38;;
36351;SDS011;22382;44.768;17.206;2023-02-15T16:46:15;48.40;;;30.50;;
36351;SDS011;22382;44.768;17.206;2023-02-15T16:48:46;45.38;;;28.17;;
36351;SDS011;22382;44.768;17.206;2023-02-15T16:51:18;48.95;;;30.23;;
36351;SDS011;22382;44.768;17.206;2023-02-15T16:53:48;56.55;;;31.67;;
36351;SDS011;22382;44.768;17.206;2023-02-15T16:56:22;50.63;;;30.85;;
36351;SDS011;22382;44.768;17.206;2023-02-15T17:01:20;58.17;;;35.88;;
36351;SDS011;22382;44.768;17.206;2023-02-15T17:03:51;53.97;;;33.65;;
36351;SDS011;22382;44.768;17.206;2023-02-15T17:06:36;61.40;;;36.35;;
36351;SDS011;22382;44.768;17.206;2023-02-15T17:09:05;53.42;;;34.40;;
36351;SDS011;22382;44.768;17.206;2023-02-15T17:11:41;63.08;;;39.08;;
36351;SDS011;22382;44.768;17.206;2023-02-15T17:14:10;65.00;;;37.42;;
36351;SDS011;22382;44.768;17.206;2023-02-15T17:19:22;53.75;;;33.22;;
36351;SDS011;22382;44.768;17.206;2023-02-15T17:21:58;56.78;;;33.53;;
36351;SDS011;22382;44.768;17.206;2023-02-15T17:24:43;53.67;;;33.00;;
36351;SDS011;22382;44.768;17.206;2023-02-15T17:29:48;65.33;;;38.97;;
36351;SDS011;22382;44.768;17.206;2023-02-15T17:32:20;61.30;;;38.17;;
36351;SDS011;22382;44.768;17.206;2023-02-15T17:34:59;66.90;;;38.03;;
36351;SDS011;22382;44.768;17.206;2023-02-15T17:40:00;71.22;;;42.92;;
36351;SDS011;22382;44.768;17.206;2023-02-15T17:42:53;73.15;;;42.72;;
36351;SDS011;22382;44.768;17.206;2023-02-15T17:45:21;73.65;;;40.90;;
36351;SDS011;22382;44.768;17.206;2023-02-15T17:47:51;70.07;;;39.15;;
36351;SDS011;22382;44.768;17.206;2023-02-15T17:50:22;71.28;;;37.88;;
36351;SDS011;22382;44.768;17.206;2023-02-15T17:52:51;68.22;;;39.78;;
36351;SDS011;22382;44.768;17.206;2023-02-15T17:55:21;81.95;;;45.63;;
36351;SDS011;22382;44.768;17.206;2023-02-15T17:58:02;77.60;;;43.63;;
36351;SDS011;22382;44.768;17.206;2023-02-15T18:00:31;74.18;;;42.45;;
36351;SDS011;22382;44.768;17.206;2023-02-15T18:03:21;73.00;;;40.95;;
36351;SDS011;22382;44.768;17.206;2023-02-15T18:06:08;69.93;;;38.92;;